메인 페이지
METAR-TAF:

METAR-TAF

공항 :

Palenque, 멕시코

위도: 17-32-06N, 경도: 92-00-54W, 고도: 60m

현재 날씨관측

예보는 7 시간 22분 전, 00:41시(UTC)에 발표되었습니다.
무풍
온도 37°C
습도 54%
기압 1002 hPa
시정: 4.8km
고도 7000ft 상공 구름 많음
연무

METAR: MMPQ 260041Z 00000KT 3SM HZ BKN070 37/26 A2959 RMK 8/020

시각: 03:03 (08:03 UTC)

예보

예보는 3 시간 21분 전, 04:42시(UTC)에 발표되었습니다.
예보 대상 시간: 26일 06시부터 27일 06시까지 (UTC)
kt
시정: 4.8km
맑음
연무
26일 2000시부터 (UTC)
5kt
시정: 6.4km
고도 29000ft 상공 구름 보통
연무
27일 0200시부터 (UTC)
kt
시정: 4.8km
맑음
연무,

TAF: MMPQ 260442Z 2606/2706 00000KT 3SM HZ SKC FM262000 08005KT 4SM HZ SCT290 FM270200 00000KT 3SM HZ SKC

4,000개 이상의 공항 관측 자료 및 예보 (METAR 및 TAF 보고).

지도상에서 검색 가능한 기상관측소가 노란 점과 빨간 점으로 표시되어 있습니다.

기상관측소 명을 보려면 표시 위로 마우스를 이동하세요.

날씨 관측과 예보를 보려면 클릭하세요.

지도 변경 : 확대하려면 엑스 표시가 있는 녹색 버튼, 축소하려면 빼기 표시가 있는 녹색 버튼, 다음 페이지의 지도를 보려면 녹색 화살표를 클릭하세요.


METAR-TAF: